createdAt,value
2022-08-30T00:04:07.277Z,20.06
2022-08-30T00:09:09.089Z,20.05
2022-08-30T00:14:10.740Z,20.01
2022-08-30T00:19:12.649Z,19.99
2022-08-30T00:24:14.391Z,19.97
2022-08-30T00:29:16.252Z,19.93
2022-08-30T00:34:18.227Z,19.89
2022-08-30T00:39:19.953Z,19.83
2022-08-30T00:44:21.565Z,19.77
2022-08-30T00:49:24.451Z,19.67
2022-08-30T00:54:26.370Z,19.54
2022-08-30T00:59:29.169Z,19.53
2022-08-30T01:04:33.512Z,19.50
2022-08-30T01:09:36.619Z,19.37
2022-08-30T01:14:38.625Z,19.29
2022-08-30T01:19:54.544Z,19.26
2022-08-30T01:24:59.030Z,19.21
2022-08-30T01:30:01.362Z,19.08
2022-08-30T01:35:03.268Z,19.08
2022-08-30T01:40:07.133Z,19.02
2022-08-30T01:45:09.776Z,18.95
2022-08-30T01:50:11.920Z,18.92
2022-08-30T01:55:13.828Z,18.89
2022-08-30T02:00:17.692Z,18.89
2022-08-30T02:05:19.760Z,18.88
2022-08-30T02:10:21.567Z,18.86
2022-08-30T02:15:23.416Z,18.83
2022-08-30T02:20:25.153Z,18.83
2022-08-30T02:25:26.924Z,18.82
2022-08-30T02:30:28.688Z,18.79
2022-08-30T02:35:30.773Z,18.79
2022-08-30T02:40:33.108Z,18.75
2022-08-30T02:45:35.057Z,18.75
2022-08-30T02:50:45.105Z,18.70
2022-08-30T02:55:48.245Z,18.67
2022-08-30T03:00:50.625Z,18.62
2022-08-30T03:05:54.360Z,18.56
2022-08-30T03:10:57.244Z,18.52
2022-08-30T03:15:59.002Z,18.52
2022-08-30T03:21:00.666Z,18.54
2022-08-30T03:26:02.593Z,18.53
2022-08-30T03:31:04.625Z,18.50
2022-08-30T03:36:08.588Z,18.47
2022-08-30T03:41:10.385Z,18.46
2022-08-30T03:46:12.709Z,18.46
2022-08-30T03:51:14.513Z,18.44
2022-08-30T03:56:16.944Z,18.40
2022-08-30T04:01:19.040Z,18.42
2022-08-30T04:06:20.721Z,18.42
2022-08-30T04:11:22.384Z,18.42
2022-08-30T04:16:25.376Z,18.41
2022-08-30T04:21:27.393Z,18.40
2022-08-30T04:26:29.624Z,18.41
2022-08-30T04:31:31.682Z,18.40
2022-08-30T04:36:33.950Z,18.43
2022-08-30T04:41:36.811Z,18.46
2022-08-30T04:46:38.461Z,18.47
2022-08-30T04:51:46.696Z,18.54
2022-08-30T04:56:48.329Z,18.59
2022-08-30T05:01:50.254Z,18.69
2022-08-30T05:06:52.936Z,18.98
2022-08-30T05:11:55.024Z,19.45
2022-08-30T05:16:56.754Z,19.88
2022-08-30T05:21:58.620Z,20.30
2022-08-30T05:27:00.485Z,20.55
2022-08-30T05:32:02.492Z,20.78
2022-08-30T05:37:04.399Z,20.93
2022-08-30T05:42:06.536Z,21.02
2022-08-30T05:47:08.360Z,21.11
2022-08-30T05:52:10.088Z,21.23
2022-08-30T05:57:12.151Z,21.33
2022-08-30T06:02:13.897Z,21.41
2022-08-30T06:07:16.480Z,21.50
2022-08-30T06:12:19.857Z,21.55
2022-08-30T06:17:21.763Z,21.62
2022-08-30T06:22:23.877Z,21.72
2022-08-30T06:27:25.878Z,21.79
2022-08-30T06:32:27.779Z,21.87
2022-08-30T06:37:30.310Z,21.92
2022-08-30T06:42:33.627Z,22.04
2022-08-30T06:47:35.603Z,22.12
2022-08-30T06:52:37.641Z,22.14
2022-08-30T06:57:40.090Z,22.21
2022-08-30T07:02:41.949Z,22.30
2022-08-30T07:07:43.980Z,22.56
2022-08-30T07:12:45.865Z,22.73
2022-08-30T07:18:05.853Z,22.91
2022-08-30T07:23:08.396Z,22.87
2022-08-30T07:28:10.835Z,22.68
2022-08-30T07:33:12.558Z,22.71
2022-08-30T07:38:15.066Z,23.06
2022-08-30T07:43:17.049Z,23.34
2022-08-30T07:48:18.764Z,23.22
2022-08-30T07:53:20.608Z,23.31
2022-08-30T07:58:22.525Z,23.45
2022-08-30T08:03:24.298Z,23.59
2022-08-30T08:08:26.189Z,23.51
2022-08-30T08:13:28.661Z,23.56
2022-08-30T08:18:34.490Z,23.83
2022-08-30T08:23:36.315Z,23.81
2022-08-30T08:28:38.020Z,24.01
2022-08-30T08:33:40.103Z,23.94
2022-08-30T08:38:41.896Z,23.82
2022-08-30T08:43:43.584Z,23.76
2022-08-30T08:49:00.018Z,24.07
2022-08-30T08:54:33.151Z,24.16
2022-08-30T08:59:35.017Z,24.01
2022-08-30T09:04:39.393Z,24.08
2022-08-30T09:09:43.153Z,24.21
2022-08-30T09:14:51.269Z,24.48
2022-08-30T09:20:00.063Z,24.53
2022-08-30T09:25:07.727Z,24.39
2022-08-30T09:30:20.400Z,24.61
2022-08-30T09:35:44.349Z,24.62
2022-08-30T09:40:52.089Z,24.83
2022-08-30T09:46:02.395Z,24.84
2022-08-30T09:51:15.797Z,25.00
2022-08-30T09:56:26.071Z,25.19
2022-08-30T10:01:32.265Z,25.20
2022-08-30T10:06:46.588Z,25.31
2022-08-30T10:12:00.465Z,25.21
2022-08-30T10:17:38.980Z,25.49
2022-08-30T10:22:48.241Z,25.55
2022-08-30T10:28:07.633Z,25.76
2022-08-30T10:33:25.491Z,25.87
2022-08-30T10:38:30.053Z,26.16
2022-08-30T10:43:50.840Z,26.30
2022-08-30T10:48:55.084Z,26.42
2022-08-30T10:54:15.644Z,26.19
2022-08-30T10:59:21.123Z,26.37
2022-08-30T11:04:45.587Z,26.53
2022-08-30T11:10:11.833Z,26.62
2022-08-30T11:15:23.111Z,26.50
2022-08-30T11:20:47.040Z,26.58
2022-08-30T11:25:58.104Z,26.43
2022-08-30T11:31:08.873Z,26.73
2022-08-30T11:36:37.434Z,26.37
2022-08-30T11:41:47.676Z,26.56
2022-08-30T11:46:58.827Z,26.67
2022-08-30T11:52:27.615Z,26.98
2022-08-30T11:57:49.858Z,26.97
2022-08-30T12:02:59.586Z,27.03
2022-08-30T12:08:04.511Z,27.46
2022-08-30T12:13:06.968Z,27.68
2022-08-30T12:18:28.676Z,27.28
2022-08-30T12:23:57.431Z,27.38
2022-08-30T12:29:12.983Z,27.62
2022-08-30T12:34:29.038Z,27.47
2022-08-30T12:39:39.699Z,27.90
2022-08-30T12:44:42.874Z,28.02
2022-08-30T12:49:46.373Z,28.15
2022-08-30T12:54:48.432Z,27.89
2022-08-30T12:59:59.339Z,28.15
2022-08-30T13:05:34.373Z,28.43
2022-08-30T13:10:36.425Z,28.52
2022-08-30T13:15:42.600Z,28.22
2022-08-30T13:20:47.138Z,28.09
2022-08-30T13:25:50.032Z,27.80
2022-08-30T13:30:52.829Z,27.62
2022-08-30T13:35:54.649Z,27.90
2022-08-30T13:40:56.591Z,28.28
2022-08-30T13:45:58.479Z,28.05
2022-08-30T13:51:00.737Z,27.70
2022-08-30T13:56:04.352Z,28.02
2022-08-30T14:01:06.359Z,28.29
2022-08-30T14:06:31.550Z,28.45
2022-08-30T14:11:30.869Z,28.49
2022-08-30T14:16:33.663Z,28.25
2022-08-30T14:21:36.149Z,27.95
2022-08-30T14:26:43.747Z,27.61
2022-08-30T14:31:51.072Z,27.54
2022-08-30T14:36:52.882Z,27.79
2022-08-30T14:41:55.941Z,28.06
2022-08-30T14:46:59.965Z,27.76
2022-08-30T14:52:02.322Z,27.45
2022-08-30T14:57:05.003Z,27.47
2022-08-30T15:02:06.725Z,27.29
2022-08-30T15:07:13.103Z,27.51
2022-08-30T15:12:15.377Z,27.32
2022-08-30T15:17:19.273Z,27.43
2022-08-30T15:22:20.948Z,27.48
2022-08-30T15:27:23.902Z,27.33
2022-08-30T15:32:25.967Z,26.98
2022-08-30T15:37:27.932Z,26.63
2022-08-30T15:42:33.709Z,26.57
2022-08-30T15:47:35.366Z,26.66
2022-08-30T15:52:37.696Z,26.56
2022-08-30T15:57:39.713Z,26.39
2022-08-30T16:02:42.386Z,26.46
2022-08-30T16:07:46.681Z,26.53
2022-08-30T16:12:48.338Z,26.34
2022-08-30T16:17:50.152Z,26.31
2022-08-30T16:22:52.312Z,26.40
2022-08-30T16:27:54.011Z,26.18
2022-08-30T16:32:55.899Z,26.08
2022-08-30T16:37:57.530Z,26.06
2022-08-30T16:42:59.321Z,25.89
2022-08-30T16:48:01.257Z,25.88
2022-08-30T16:53:04.013Z,25.73
2022-08-30T16:58:11.757Z,25.67
2022-08-30T17:03:15.523Z,25.57
2022-08-30T17:08:17.590Z,25.38
2022-08-30T17:13:21.954Z,25.34
2022-08-30T17:18:24.767Z,25.27
2022-08-30T17:23:26.561Z,25.26
2022-08-30T17:28:29.638Z,24.98
2022-08-30T17:33:32.407Z,24.64
2022-08-30T17:38:34.719Z,24.56
2022-08-30T17:43:39.608Z,24.51
2022-08-30T17:48:41.446Z,24.31
2022-08-30T17:53:43.276Z,24.32
2022-08-30T17:58:47.030Z,24.11
2022-08-30T18:03:51.211Z,24.00
2022-08-30T18:08:55.156Z,24.04
2022-08-30T18:13:57.128Z,23.86
2022-08-30T18:18:58.938Z,23.95
2022-08-30T18:24:00.864Z,23.98
2022-08-30T18:29:04.279Z,23.73
2022-08-30T18:34:07.010Z,23.72
2022-08-30T18:39:14.101Z,23.61
2022-08-30T18:44:27.933Z,23.63
2022-08-30T18:49:32.303Z,23.59
2022-08-30T18:54:39.313Z,23.40
2022-08-30T18:59:42.127Z,23.19
2022-08-30T19:04:45.713Z,23.20
2022-08-30T19:09:47.856Z,23.12
2022-08-30T19:14:50.013Z,23.12
2022-08-30T19:19:52.578Z,23.06
2022-08-30T19:24:54.205Z,23.04
2022-08-30T19:29:56.557Z,22.89
2022-08-30T19:34:58.745Z,22.73
2022-08-30T19:40:02.058Z,22.63
2022-08-30T19:45:06.285Z,22.57
2022-08-30T19:50:08.693Z,22.42
2022-08-30T19:55:11.886Z,22.31
2022-08-30T20:00:16.632Z,22.28
2022-08-30T20:05:18.597Z,22.23
2022-08-30T20:10:20.760Z,22.20
2022-08-30T20:15:27.574Z,22.12
2022-08-30T20:20:29.581Z,22.04
2022-08-30T20:25:31.265Z,21.95
2022-08-30T20:30:33.604Z,21.87
2022-08-30T20:35:36.552Z,21.74
2022-08-30T20:40:39.839Z,21.66
2022-08-30T20:45:42.000Z,21.57
2022-08-30T20:50:44.359Z,21.47
2022-08-30T20:55:47.564Z,21.40
2022-08-30T21:00:50.837Z,21.30
2022-08-30T21:05:52.562Z,21.25
2022-08-30T21:10:54.776Z,21.16
2022-08-30T21:16:00.624Z,21.06
2022-08-30T21:21:14.461Z,20.97
2022-08-30T21:26:17.794Z,20.88
2022-08-30T21:31:22.871Z,20.77
2022-08-30T21:36:45.317Z,20.66
2022-08-30T21:41:48.029Z,20.50
2022-08-30T21:46:52.169Z,20.40
2022-08-30T21:51:55.338Z,20.32
2022-08-30T21:57:02.510Z,20.26
2022-08-30T22:02:04.848Z,20.20
2022-08-30T22:07:08.270Z,20.18
2022-08-30T22:12:10.695Z,20.15
2022-08-30T22:17:12.909Z,20.09
2022-08-30T22:22:14.556Z,20.02
2022-08-30T22:27:16.253Z,20.02
2022-08-30T22:32:18.167Z,20.00
2022-08-30T22:37:19.855Z,19.98
2022-08-30T22:42:21.564Z,19.91
2022-08-30T22:47:23.419Z,19.89
2022-08-30T22:52:25.371Z,19.86
2022-08-30T22:57:27.593Z,19.83
2022-08-30T23:02:29.511Z,19.79
2022-08-30T23:07:31.562Z,19.73
2022-08-30T23:12:33.374Z,19.63
2022-08-30T23:17:38.693Z,19.53
2022-08-30T23:22:41.638Z,19.40
2022-08-30T23:28:03.254Z,19.37
2022-08-30T23:33:23.736Z,19.32
2022-08-30T23:38:44.097Z,19.20
2022-08-30T23:44:03.953Z,19.11
2022-08-30T23:49:24.426Z,19.02
2022-08-30T23:54:44.769Z,18.91
